createdAt,value
2022-08-10T00:02:13.954Z,6.85
2022-08-10T00:04:41.317Z,6.95
2022-08-10T00:07:08.602Z,7.28
2022-08-10T00:09:51.171Z,6.40
2022-08-10T00:12:19.830Z,6.70
2022-08-10T00:14:47.593Z,6.70
2022-08-10T00:17:15.024Z,6.57
2022-08-10T00:20:03.609Z,7.05
2022-08-10T00:22:29.655Z,6.47
2022-08-10T00:24:58.074Z,6.35
2022-08-10T00:27:58.656Z,6.03
2022-08-10T00:30:13.910Z,5.75
2022-08-10T00:32:41.244Z,5.35
2022-08-10T00:35:08.970Z,5.20
2022-08-10T00:37:36.258Z,4.78
2022-08-10T00:40:05.309Z,5.50
2022-08-10T00:42:32.924Z,5.50
2022-08-10T00:45:00.318Z,4.88
2022-08-10T00:47:37.450Z,5.28
2022-08-10T00:50:09.578Z,4.88
2022-08-10T00:52:40.937Z,4.25
2022-08-10T00:55:08.658Z,5.00
2022-08-10T00:57:36.424Z,4.75
2022-08-10T01:00:06.111Z,4.43
2022-08-10T01:02:34.354Z,4.97
2022-08-10T01:05:06.650Z,4.70
2022-08-10T01:07:51.433Z,4.07
2022-08-10T01:10:56.254Z,4.50
2022-08-10T01:13:41.652Z,4.65
2022-08-10T01:16:29.681Z,4.35
2022-08-10T01:19:11.936Z,4.18
2022-08-10T01:21:58.602Z,4.03
2022-08-10T01:24:40.511Z,4.20
2022-08-10T01:27:26.923Z,3.75
2022-08-10T01:29:57.495Z,4.07
2022-08-10T01:32:41.455Z,4.40
2022-08-10T01:35:34.146Z,4.05
2022-08-10T01:38:07.345Z,4.55
2022-08-10T01:40:39.176Z,4.05
2022-08-10T01:43:10.139Z,3.85
2022-08-10T01:45:46.347Z,3.97
2022-08-10T01:48:29.799Z,4.25
2022-08-10T01:51:15.583Z,3.88
2022-08-10T01:53:52.135Z,4.28
2022-08-10T01:56:23.279Z,3.60
2022-08-10T01:58:56.876Z,4.13
2022-08-10T02:01:29.048Z,3.80
2022-08-10T02:04:03.830Z,4.07
2022-08-10T02:06:37.701Z,4.15
2022-08-10T02:09:07.833Z,4.63
2022-08-10T02:12:06.036Z,3.90
2022-08-10T02:14:34.070Z,3.75
2022-08-10T02:17:57.965Z,4.80
2022-08-10T02:20:02.673Z,3.83
2022-08-10T02:22:35.616Z,4.55
2022-08-10T02:25:41.067Z,4.47
2022-08-10T02:28:07.794Z,4.00
2022-08-10T02:30:37.671Z,4.72
2022-08-10T02:33:06.236Z,4.55
2022-08-10T02:35:55.454Z,4.53
2022-08-10T02:38:58.712Z,4.05
2022-08-10T02:45:13.002Z,4.00
2022-08-10T02:45:22.065Z,4.28
2022-08-10T02:47:51.479Z,4.38
2022-08-10T02:50:32.811Z,4.03
2022-08-10T02:53:06.202Z,4.30
2022-08-10T02:55:47.262Z,4.05
2022-08-10T02:58:21.032Z,3.88
2022-08-10T03:00:52.612Z,3.30
2022-08-10T03:03:31.385Z,3.67
2022-08-10T03:06:08.589Z,3.50
2022-08-10T03:08:41.580Z,4.20
2022-08-10T03:11:14.288Z,3.95
2022-08-10T03:13:43.679Z,4.55
2022-08-10T03:16:12.399Z,3.72
2022-08-10T03:18:40.222Z,5.85
2022-08-10T03:21:11.796Z,4.45
2022-08-10T03:23:42.000Z,3.90
2022-08-10T03:26:10.298Z,3.60
2022-08-10T03:28:38.238Z,3.70
2022-08-10T03:31:05.832Z,3.83
2022-08-10T03:33:35.945Z,3.60
2022-08-10T03:36:44.039Z,3.55
2022-08-10T03:38:54.557Z,4.32
2022-08-10T03:41:53.348Z,3.97
2022-08-10T03:44:31.612Z,4.05
2022-08-10T03:47:03.159Z,4.03
2022-08-10T03:49:43.830Z,3.28
2022-08-10T03:52:11.468Z,4.00
2022-08-10T03:54:39.125Z,3.78
2022-08-10T03:57:06.819Z,3.92
2022-08-10T03:59:36.295Z,4.03
2022-08-10T04:02:44.422Z,4.47
2022-08-10T04:04:53.875Z,4.47
2022-08-10T04:07:21.802Z,4.55
2022-08-10T04:09:55.006Z,6.70
2022-08-10T04:12:24.936Z,16.73
2022-08-10T04:14:53.560Z,18.85
2022-08-10T04:18:03.772Z,25.02
2022-08-10T04:20:41.516Z,26.40
2022-08-10T04:23:12.992Z,30.58
2022-08-10T04:25:41.237Z,21.02
2022-08-10T04:28:09.719Z,5.47
2022-08-10T04:30:38.810Z,4.72
2022-08-10T04:33:08.614Z,4.47
2022-08-10T04:35:37.848Z,4.22
2022-08-10T04:38:06.270Z,4.00
2022-08-10T04:40:33.750Z,4.05
2022-08-10T04:43:12.642Z,4.38
2022-08-10T04:45:47.319Z,4.07
2022-08-10T04:48:42.056Z,3.90
2022-08-10T04:51:06.806Z,3.85
2022-08-10T04:54:04.631Z,3.83
2022-08-10T04:56:31.778Z,4.07
2022-08-10T04:59:00.885Z,3.88
2022-08-10T05:02:12.168Z,4.20
2022-08-10T05:04:34.789Z,4.13
2022-08-10T05:07:10.504Z,3.85
2022-08-10T05:10:02.358Z,4.40
2022-08-10T05:12:29.531Z,4.38
2022-08-10T05:14:56.945Z,4.70
2022-08-10T05:17:24.862Z,4.00
2022-08-10T05:20:03.757Z,4.07
2022-08-10T05:22:39.461Z,10.85
2022-08-10T05:25:12.751Z,41.70
2022-08-10T05:27:40.990Z,21.20
2022-08-10T05:30:10.533Z,11.20
2022-08-10T05:32:56.253Z,37.58
2022-08-10T05:35:26.182Z,4.15
2022-08-10T05:38:09.461Z,4.30
2022-08-10T05:40:46.693Z,5.35
2022-08-10T05:43:21.158Z,3.58
2022-08-10T05:46:18.284Z,4.15
2022-08-10T05:48:42.083Z,4.57
2022-08-10T05:51:26.741Z,3.63
2022-08-10T05:54:03.408Z,4.40
2022-08-10T05:56:53.850Z,3.47
2022-08-10T06:00:09.894Z,3.78
2022-08-10T06:02:33.115Z,4.05
2022-08-10T06:05:07.254Z,4.07
2022-08-10T06:07:39.180Z,4.05
2022-08-10T06:10:10.202Z,4.47
2022-08-10T06:12:54.835Z,3.85
2022-08-10T06:15:51.691Z,6.05
2022-08-10T06:18:19.201Z,4.82
2022-08-10T06:20:47.620Z,4.07
2022-08-10T06:23:15.155Z,3.90
2022-08-10T06:26:11.889Z,3.97
2022-08-10T06:28:34.193Z,4.10
2022-08-10T06:31:03.453Z,3.83
2022-08-10T06:33:34.173Z,3.90
2022-08-10T06:36:03.765Z,4.13
2022-08-10T06:38:34.161Z,4.10
2022-08-10T06:41:06.561Z,10.57
2022-08-10T06:43:35.987Z,3.95
2022-08-10T06:46:09.360Z,4.05
2022-08-10T06:48:46.548Z,3.67
2022-08-10T06:51:18.218Z,3.72
2022-08-10T06:53:53.825Z,4.30
2022-08-10T06:56:36.175Z,3.72
2022-08-10T06:59:21.266Z,3.75
2022-08-10T07:01:54.003Z,3.35
2022-08-10T07:04:44.680Z,3.92
2022-08-10T07:07:18.872Z,3.60
2022-08-10T07:09:48.386Z,3.55
2022-08-10T07:12:16.532Z,3.90
2022-08-10T07:14:47.057Z,4.05
2022-08-10T07:17:17.890Z,3.47
2022-08-10T07:19:50.247Z,4.05
2022-08-10T07:23:01.619Z,3.53
2022-08-10T07:25:13.474Z,4.15
2022-08-10T07:27:59.525Z,3.60
2022-08-10T07:30:31.869Z,3.28
2022-08-10T07:33:01.929Z,3.47
2022-08-10T07:35:41.912Z,4.30
2022-08-10T07:38:24.119Z,3.40
2022-08-10T07:40:53.534Z,2.95
2022-08-10T07:43:24.476Z,3.30
2022-08-10T07:45:52.025Z,2.90
2022-08-10T07:48:31.776Z,3.60
2022-08-10T07:51:02.109Z,3.25
2022-08-10T07:53:34.323Z,5.60
2022-08-10T07:56:20.984Z,3.20
2022-08-10T07:58:57.878Z,3.03
2022-08-10T08:01:33.079Z,3.40
2022-08-10T08:04:10.599Z,3.05
2022-08-10T08:06:42.779Z,3.08
2022-08-10T08:09:11.537Z,3.03
2022-08-10T08:11:42.074Z,2.63
2022-08-10T08:14:12.222Z,3.30
2022-08-10T08:16:43.978Z,3.45
2022-08-10T08:19:37.708Z,2.85
2022-08-10T08:24:07.805Z,2.80
2022-08-10T08:24:52.496Z,3.00
2022-08-10T08:27:20.532Z,3.05
2022-08-10T08:29:49.997Z,2.70
2022-08-10T08:32:22.388Z,2.88
2022-08-10T08:34:54.648Z,3.20
2022-08-10T08:38:29.706Z,2.90
2022-08-10T08:40:16.772Z,2.72
2022-08-10T08:43:03.379Z,2.50
2022-08-10T08:46:01.549Z,3.10
2022-08-10T08:48:51.391Z,2.97
2022-08-10T08:52:09.324Z,2.80
2022-08-10T08:54:55.479Z,3.00
2022-08-10T08:57:55.780Z,2.60
2022-08-10T09:00:29.075Z,3.63
2022-08-10T09:03:05.395Z,3.00
2022-08-10T09:05:58.681Z,2.92
2022-08-10T09:09:05.211Z,2.90
2022-08-10T09:12:06.590Z,2.97
2022-08-10T09:14:54.868Z,3.20
2022-08-10T09:17:33.199Z,2.90
2022-08-10T09:20:10.404Z,2.55
2022-08-10T09:22:57.249Z,2.85
2022-08-10T09:25:32.972Z,2.80
2022-08-10T09:28:17.229Z,3.05
2022-08-10T09:31:18.668Z,2.70
2022-08-10T09:36:24.250Z,2.58
2022-08-10T09:36:51.778Z,2.45
2022-08-10T09:40:06.937Z,2.80
2022-08-10T09:43:25.670Z,2.55
2022-08-10T09:45:57.386Z,2.45
2022-08-10T09:48:46.248Z,2.55
2022-08-10T09:51:46.633Z,2.80
2022-08-10T09:54:36.664Z,2.70
2022-08-10T09:57:44.906Z,2.60
2022-08-10T10:00:17.114Z,4.10
2022-08-10T10:03:04.325Z,3.20
2022-08-10T10:05:51.865Z,3.25
2022-08-10T10:08:25.752Z,3.00
2022-08-10T10:11:17.302Z,3.33
2022-08-10T10:14:03.698Z,2.85
2022-08-10T10:17:01.452Z,2.80
2022-08-10T10:20:08.022Z,3.25
2022-08-10T10:23:03.149Z,2.70
2022-08-10T10:25:50.303Z,2.65
2022-08-10T10:32:10.144Z,3.03
2022-08-10T10:35:21.613Z,2.90
2022-08-10T10:38:01.128Z,2.50
2022-08-10T10:40:42.496Z,2.47
2022-08-10T10:43:48.751Z,3.00
2022-08-10T10:46:57.214Z,3.05
2022-08-10T10:49:42.852Z,3.10
2022-08-10T10:52:37.909Z,3.33
2022-08-10T10:55:23.713Z,6.10
2022-08-10T10:58:12.060Z,4.20
2022-08-10T11:01:03.166Z,4.80
2022-08-10T11:03:49.112Z,5.28
2022-08-10T11:38:30.168Z,1.63
2022-08-10T11:42:09.983Z,1.85
2022-08-10T11:44:09.591Z,1.92
2022-08-10T11:46:46.991Z,2.00
2022-08-10T11:49:24.498Z,2.35
2022-08-10T11:52:05.037Z,2.27
2022-08-10T11:54:50.944Z,2.75
2022-08-10T11:57:19.722Z,2.28
2022-08-10T11:59:59.146Z,2.20
2022-08-10T12:02:50.341Z,2.30
2022-08-10T12:05:52.580Z,1.83
2022-08-10T12:10:07.221Z,2.00
2022-08-10T12:11:09.474Z,2.58
2022-08-10T12:14:10.657Z,2.25
2022-08-10T12:16:43.132Z,2.33
2022-08-10T12:19:21.262Z,2.53
2022-08-10T12:21:56.830Z,2.53
2022-08-10T12:24:38.210Z,2.40
2022-08-10T12:27:16.745Z,2.85
2022-08-10T12:29:50.574Z,2.70
2022-08-10T12:32:51.941Z,3.13
2022-08-10T12:36:01.718Z,3.25
2022-08-10T12:38:47.067Z,2.92
2022-08-10T12:41:43.951Z,2.67
2022-08-10T12:44:41.659Z,2.50
2022-08-10T12:47:39.413Z,2.40
2022-08-10T12:50:42.895Z,3.45
2022-08-10T12:53:41.439Z,2.38
2022-08-10T12:56:08.938Z,2.55
2022-08-10T12:58:59.482Z,2.03
2022-08-10T13:02:09.462Z,2.42
2022-08-10T13:04:36.160Z,2.00
2022-08-10T13:07:06.338Z,2.20
2022-08-10T13:09:34.615Z,2.42
2022-08-10T13:12:36.638Z,2.50
2022-08-10T13:15:45.919Z,2.42
2022-08-10T13:18:18.634Z,2.63
2022-08-10T13:20:55.373Z,2.38
2022-08-10T13:23:29.686Z,2.20
2022-08-10T13:25:59.910Z,2.08
2022-08-10T13:28:45.896Z,2.28
2022-08-10T13:31:18.319Z,2.38
2022-08-10T13:34:41.190Z,2.35
2022-08-10T13:36:42.042Z,2.53
2022-08-10T13:39:10.986Z,2.50
2022-08-10T13:41:42.990Z,3.05
2022-08-10T13:44:13.383Z,2.58
2022-08-10T13:46:48.286Z,2.53
2022-08-10T13:49:21.734Z,2.13
2022-08-10T13:51:57.393Z,2.08
2022-08-10T13:54:29.561Z,2.20
2022-08-10T13:56:58.382Z,2.28
2022-08-10T14:00:37.525Z,2.72
2022-08-10T14:02:25.074Z,2.40
2022-08-10T14:04:55.260Z,2.28
2022-08-10T14:07:24.260Z,2.00
2022-08-10T14:09:53.717Z,2.20
2022-08-10T14:12:32.264Z,2.15
2022-08-10T14:15:04.994Z,2.22
2022-08-10T14:17:34.310Z,2.15
2022-08-10T14:20:13.339Z,2.28
2022-08-10T14:22:42.405Z,2.03
2022-08-10T14:25:31.554Z,2.67
2022-08-10T14:28:02.534Z,2.30
2022-08-10T14:30:33.536Z,2.10
2022-08-10T14:33:04.833Z,2.15
2022-08-10T14:36:21.178Z,2.03
2022-08-10T14:38:31.107Z,2.35
2022-08-10T14:41:04.623Z,2.38
2022-08-10T14:43:39.871Z,2.05
2022-08-10T14:46:20.263Z,2.20
2022-08-10T14:48:52.297Z,2.15
2022-08-10T14:51:28.252Z,2.60
2022-08-10T14:54:15.918Z,2.40
2022-08-10T14:56:49.077Z,2.42
2022-08-10T14:59:18.611Z,2.25
2022-08-10T15:02:00.668Z,2.25
2022-08-10T15:04:38.059Z,1.95
2022-08-10T15:07:29.727Z,2.05
2022-08-10T15:10:00.765Z,2.92
2022-08-10T15:12:36.063Z,2.97
2022-08-10T15:15:06.629Z,2.30
2022-08-10T15:17:38.092Z,2.42
2022-08-10T15:20:20.625Z,2.08
2022-08-10T15:22:55.616Z,2.13
2022-08-10T15:25:26.372Z,2.38
2022-08-10T15:28:06.411Z,2.20
2022-08-10T15:30:42.587Z,2.00
2022-08-10T15:34:04.429Z,2.13
2022-08-10T15:37:36.979Z,2.50
2022-08-10T15:40:24.051Z,2.30
2022-08-10T15:42:49.159Z,2.55
2022-08-10T15:45:18.029Z,2.42
2022-08-10T15:48:01.873Z,2.20
2022-08-10T15:50:44.250Z,2.30
2022-08-10T15:53:15.896Z,2.28
2022-08-10T15:55:46.338Z,2.65
2022-08-10T15:58:39.460Z,2.28
2022-08-10T16:02:12.777Z,2.35
2022-08-10T16:04:09.101Z,2.25
2022-08-10T16:06:42.807Z,2.88
2022-08-10T16:10:23.981Z,2.58
2022-08-10T16:12:14.345Z,2.60
2022-08-10T16:14:48.014Z,2.67
2022-08-10T16:17:16.853Z,2.63
2022-08-10T16:20:04.652Z,2.50
2022-08-10T16:22:37.138Z,2.63
2022-08-10T16:25:14.652Z,2.60
2022-08-10T16:27:44.562Z,2.40
2022-08-10T16:30:12.971Z,2.42
2022-08-10T16:32:41.679Z,2.60
2022-08-10T16:35:15.996Z,4.50
2022-08-10T16:37:58.736Z,3.10
2022-08-10T16:40:29.548Z,4.80
2022-08-10T16:42:59.252Z,4.00
2022-08-10T16:45:40.341Z,3.10
2022-08-10T16:48:09.722Z,2.90
2022-08-10T16:50:45.378Z,3.03
2022-08-10T16:53:18.930Z,3.03
2022-08-10T16:55:57.600Z,3.10
2022-08-10T16:58:34.431Z,2.60
2022-08-10T17:01:11.073Z,18.98
2022-08-10T17:04:07.282Z,4.35
2022-08-10T17:06:55.834Z,3.47
2022-08-10T17:09:27.961Z,3.00
2022-08-10T17:11:58.278Z,2.83
2022-08-10T17:14:28.931Z,3.20
2022-08-10T17:17:08.679Z,3.00
2022-08-10T17:19:40.805Z,28.25
2022-08-10T17:22:14.492Z,45.45
2022-08-10T17:24:52.808Z,52.85
2022-08-10T17:28:04.669Z,23.33
2022-08-10T17:30:15.895Z,25.83
2022-08-10T17:32:59.540Z,20.17
2022-08-10T17:35:36.705Z,13.63
2022-08-10T17:38:26.450Z,7.30
2022-08-10T17:41:03.750Z,11.60
2022-08-10T17:44:01.346Z,6.10
2022-08-10T17:46:26.093Z,4.50
2022-08-10T17:48:55.416Z,5.03
2022-08-10T17:51:28.675Z,4.25
2022-08-10T17:54:00.195Z,4.20
2022-08-10T17:56:31.862Z,3.70
2022-08-10T17:59:02.921Z,3.83
2022-08-10T18:01:40.919Z,12.73
2022-08-10T18:04:25.616Z,3.90
2022-08-10T18:06:55.195Z,3.67
2022-08-10T18:09:54.456Z,5.03
2022-08-10T18:12:38.650Z,3.08
2022-08-10T18:15:13.368Z,4.65
2022-08-10T18:17:45.311Z,4.95
2022-08-10T18:20:14.888Z,3.45
2022-08-10T18:22:48.563Z,4.15
2022-08-10T18:25:33.956Z,3.53
2022-08-10T18:28:05.108Z,4.20
2022-08-10T18:30:36.647Z,3.65
2022-08-10T18:33:09.056Z,3.95
2022-08-10T18:35:39.161Z,4.30
2022-08-10T18:38:08.177Z,4.53
2022-08-10T18:40:38.515Z,4.13
2022-08-10T18:44:05.051Z,3.10
2022-08-10T18:46:02.684Z,2.95
2022-08-10T18:48:42.730Z,3.33
2022-08-10T18:51:12.650Z,3.45
2022-08-10T18:53:51.555Z,3.50
2022-08-10T18:56:24.373Z,3.38
2022-08-10T18:59:07.860Z,3.15
2022-08-10T19:02:05.818Z,3.40
2022-08-10T19:04:51.855Z,3.38
2022-08-10T19:07:44.380Z,3.38
2022-08-10T19:10:17.711Z,3.13
2022-08-10T19:12:47.733Z,2.97
2022-08-10T19:15:37.761Z,3.03
2022-08-10T19:18:20.899Z,2.85
2022-08-10T19:21:16.190Z,3.35
2022-08-10T19:23:58.713Z,2.83
2022-08-10T19:26:47.961Z,3.15
2022-08-10T19:30:00.939Z,2.88
2022-08-10T19:32:44.800Z,2.75
2022-08-10T19:36:04.459Z,2.88
2022-08-10T19:38:55.434Z,2.80
2022-08-10T19:41:44.225Z,2.83
2022-08-10T19:44:30.899Z,2.80
2022-08-10T19:47:07.404Z,2.63
2022-08-10T19:49:43.900Z,3.15
2022-08-10T19:52:59.783Z,3.20
2022-08-10T19:55:31.791Z,2.95
2022-08-10T19:58:06.300Z,2.97
2022-08-10T20:01:06.908Z,2.80
2022-08-10T20:03:56.202Z,2.55
2022-08-10T20:06:28.559Z,2.30
2022-08-10T20:10:59.134Z,3.22
2022-08-10T20:13:43.537Z,3.40
2022-08-10T20:16:19.261Z,3.00
2022-08-10T20:19:14.775Z,3.40
2022-08-10T20:21:56.974Z,2.90
2022-08-10T20:24:49.257Z,3.13
2022-08-10T20:27:59.251Z,3.28
2022-08-10T20:30:27.912Z,3.22
2022-08-10T20:33:09.310Z,2.60
2022-08-10T20:36:05.960Z,3.10
2022-08-10T20:38:34.835Z,3.15
2022-08-10T20:41:11.274Z,3.30
2022-08-10T20:43:47.831Z,3.30
2022-08-10T20:46:36.251Z,3.30
2022-08-10T20:49:44.513Z,3.13
2022-08-10T20:52:13.835Z,3.25
2022-08-10T20:54:47.720Z,2.80
2022-08-10T20:57:55.647Z,3.35
2022-08-10T21:00:23.043Z,2.88
2022-08-10T21:03:51.591Z,2.70
2022-08-10T21:06:43.392Z,3.03
2022-08-10T21:09:23.428Z,3.30
2022-08-10T21:11:53.661Z,3.75
2022-08-10T21:14:35.636Z,3.63
2022-08-10T21:17:16.856Z,4.07
2022-08-10T21:20:09.581Z,4.13
2022-08-10T21:22:44.996Z,3.58
2022-08-10T21:25:20.064Z,3.60
2022-08-10T21:28:09.731Z,3.92
2022-08-10T21:30:45.348Z,3.55
2022-08-10T21:33:33.358Z,3.50
2022-08-10T21:36:25.224Z,3.88
2022-08-10T21:39:13.365Z,3.30
2022-08-10T21:45:59.795Z,3.72
2022-08-10T21:48:57.694Z,3.47
2022-08-10T21:52:01.943Z,4.00
2022-08-10T21:55:09.637Z,4.00
2022-08-10T21:58:16.887Z,3.75
2022-08-10T22:01:18.051Z,2.75
2022-08-10T22:04:04.905Z,3.20
2022-08-10T22:06:55.784Z,3.35
2022-08-10T22:09:50.818Z,3.10
2022-08-10T22:12:39.654Z,3.67
2022-08-10T22:16:03.287Z,3.10
2022-08-10T22:18:53.891Z,3.45
2022-08-10T22:21:59.980Z,3.40
2022-08-10T22:25:16.802Z,3.60
2022-08-10T22:28:03.684Z,3.33
2022-08-10T22:31:24.380Z,3.42
2022-08-10T22:31:25.113Z,3.92
2022-08-10T22:34:33.125Z,3.40
2022-08-10T22:37:36.997Z,3.25
2022-08-10T22:40:36.927Z,3.35
2022-08-10T22:43:35.414Z,3.10
2022-08-10T22:46:31.488Z,3.38
2022-08-10T22:49:02.082Z,3.63
2022-08-10T22:51:47.521Z,3.72
2022-08-10T22:54:42.457Z,3.30
2022-08-10T22:57:35.646Z,3.70
2022-08-10T23:00:28.729Z,3.50
2022-08-10T23:03:07.664Z,3.28
2022-08-10T23:05:41.629Z,3.03
2022-08-10T23:08:29.985Z,3.63
2022-08-10T23:11:03.728Z,3.97
2022-08-10T23:13:36.863Z,3.53
2022-08-10T23:16:43.579Z,3.85
2022-08-10T23:19:27.644Z,3.42
2022-08-10T23:22:11.576Z,3.50
2022-08-10T23:24:45.257Z,3.40
2022-08-10T23:27:38.502Z,3.95
2022-08-10T23:30:10.458Z,3.90
2022-08-10T23:32:48.183Z,4.22
2022-08-10T23:36:30.314Z,3.97
2022-08-10T23:38:07.917Z,4.30
2022-08-10T23:40:36.446Z,4.10
2022-08-10T23:43:06.545Z,3.75
2022-08-10T23:45:53.261Z,3.72
2022-08-10T23:48:29.709Z,3.63
2022-08-10T23:51:01.298Z,3.75
2022-08-10T23:53:32.435Z,4.10
2022-08-10T23:56:08.551Z,3.55
2022-08-10T23:58:40.653Z,4.18
